sensor_id;sensor_type;location;lat;lon;timestamp;pressure;altitude;pressure_sealevel;temperature
70831;BMP180;58451;51.550;7.208;2023-08-07T00:00:37;100287.20;;;12.60
70831;BMP180;58451;51.550;7.208;2023-08-07T00:02:09;100285.20;;;12.60
70831;BMP180;58451;51.550;7.208;2023-08-07T00:03:41;100292.40;;;12.60
70831;BMP180;58451;51.550;7.208;2023-08-07T00:05:14;100294.20;;;12.60
70831;BMP180;58451;51.550;7.208;2023-08-07T00:06:46;100288.40;;;12.60
70831;BMP180;58451;51.550;7.208;2023-08-07T00:08:18;100289.60;;;12.60
70831;BMP180;58451;51.550;7.208;2023-08-07T00:09:50;100288.20;;;12.60
70831;BMP180;58451;51.550;7.208;2023-08-07T00:11:21;100287.60;;;12.60
70831;BMP180;58451;51.550;7.208;2023-08-07T00:12:53;100286.40;;;12.60
70831;BMP180;58451;51.550;7.208;2023-08-07T00:14:25;100286.00;;;12.60
70831;BMP180;58451;51.550;7.208;2023-08-07T00:15:57;100289.20;;;12.60
70831;BMP180;58451;51.550;7.208;2023-08-07T00:17:29;100291.00;;;12.60
70831;BMP180;58451;51.550;7.208;2023-08-07T00:19:02;100285.80;;;12.60
70831;BMP180;58451;51.550;7.208;2023-08-07T00:20:34;100286.80;;;12.60
70831;BMP180;58451;51.550;7.208;2023-08-07T00:22:06;100288.60;;;12.60
70831;BMP180;58451;51.550;7.208;2023-08-07T00:23:38;100286.80;;;12.60
70831;BMP180;58451;51.550;7.208;2023-08-07T00:25:10;100293.40;;;12.60
70831;BMP180;58451;51.550;7.208;2023-08-07T00:26:41;100290.60;;;12.60
70831;BMP180;58451;51.550;7.208;2023-08-07T00:28:13;100291.20;;;12.60
70831;BMP180;58451;51.550;7.208;2023-08-07T00:29:45;100294.80;;;12.64
70831;BMP180;58451;51.550;7.208;2023-08-07T00:31:17;100296.60;;;12.68
70831;BMP180;58451;51.550;7.208;2023-08-07T00:32:49;100301.00;;;12.70
70831;BMP180;58451;51.550;7.208;2023-08-07T00:34:21;100295.20;;;12.70
70831;BMP180;58451;51.550;7.208;2023-08-07T00:35:53;100295.00;;;12.70
70831;BMP180;58451;51.550;7.208;2023-08-07T00:37:25;100299.80;;;12.70
70831;BMP180;58451;51.550;7.208;2023-08-07T00:38:57;100297.40;;;12.70
70831;BMP180;58451;51.550;7.208;2023-08-07T00:40:39;100302.00;;;12.70
70831;BMP180;58451;51.550;7.208;2023-08-07T00:42:11;100301.60;;;12.70
70831;BMP180;58451;51.550;7.208;2023-08-07T00:43:43;100303.00;;;12.70
70831;BMP180;58451;51.550;7.208;2023-08-07T00:45:15;100303.60;;;12.70
70831;BMP180;58451;51.550;7.208;2023-08-07T00:46:49;100311.40;;;12.70
70831;BMP180;58451;51.550;7.208;2023-08-07T00:48:22;100316.20;;;12.70
70831;BMP180;58451;51.550;7.208;2023-08-07T00:49:56;100315.20;;;12.72
70831;BMP180;58451;51.550;7.208;2023-08-07T00:51:29;100319.80;;;12.70
70831;BMP180;58451;51.550;7.208;2023-08-07T00:53:01;100318.00;;;12.74
70831;BMP180;58451;51.550;7.208;2023-08-07T00:54:33;100327.40;;;12.76
70831;BMP180;58451;51.550;7.208;2023-08-07T00:56:06;100321.60;;;12.70
70831;BMP180;58451;51.550;7.208;2023-08-07T00:57:38;100318.40;;;12.74
70831;BMP180;58451;51.550;7.208;2023-08-07T00:59:10;100319.00;;;12.72
70831;BMP180;58451;51.550;7.208;2023-08-07T01:00:42;100333.20;;;12.76
70831;BMP180;58451;51.550;7.208;2023-08-07T01:02:15;100325.40;;;12.70
70831;BMP180;58451;51.550;7.208;2023-08-07T01:03:46;100326.00;;;12.70
70831;BMP180;58451;51.550;7.208;2023-08-07T01:05:18;100327.20;;;12.70
70831;BMP180;58451;51.550;7.208;2023-08-07T01:06:51;100335.40;;;12.70
70831;BMP180;58451;51.550;7.208;2023-08-07T01:08:24;100330.20;;;12.70
70831;BMP180;58451;51.550;7.208;2023-08-07T01:09:56;100331.40;;;12.70
70831;BMP180;58451;51.550;7.208;2023-08-07T01:11:45;100333.00;;;12.70
70831;BMP180;58451;51.550;7.208;2023-08-07T01:15:30;100336.80;;;12.70
70831;BMP180;58451;51.550;7.208;2023-08-07T01:17:14;100341.60;;;12.70
70831;BMP180;58451;51.550;7.208;2023-08-07T01:18:49;100340.40;;;12.70
70831;BMP180;58451;51.550;7.208;2023-08-07T01:20:21;100337.00;;;12.70
70831;BMP180;58451;51.550;7.208;2023-08-07T01:22:15;100339.60;;;12.70
70831;BMP180;58451;51.550;7.208;2023-08-07T01:23:48;100339.60;;;12.64
70831;BMP180;58451;51.550;7.208;2023-08-07T01:25:20;100340.80;;;12.60
70831;BMP180;58451;51.550;7.208;2023-08-07T01:26:54;100346.40;;;12.60
70831;BMP180;58451;51.550;7.208;2023-08-07T01:28:36;100341.00;;;12.60
70831;BMP180;58451;51.550;7.208;2023-08-07T01:30:22;100336.60;;;12.60
70831;BMP180;58451;51.550;7.208;2023-08-07T01:31:59;100339.40;;;12.60
70831;BMP180;58451;51.550;7.208;2023-08-07T01:34:04;100333.20;;;12.58
70831;BMP180;58451;51.550;7.208;2023-08-07T01:35:43;100337.00;;;12.60
70831;BMP180;58451;51.550;7.208;2023-08-07T01:37:17;100336.00;;;12.52
70831;BMP180;58451;51.550;7.208;2023-08-07T01:38:51;100335.60;;;12.50
70831;BMP180;58451;51.550;7.208;2023-08-07T01:40:24;100322.80;;;12.50
70831;BMP180;58451;51.550;7.208;2023-08-07T01:41:57;100338.80;;;12.50
70831;BMP180;58451;51.550;7.208;2023-08-07T01:43:32;100337.80;;;12.50
70831;BMP180;58451;51.550;7.208;2023-08-07T01:45:05;100340.20;;;12.50
70831;BMP180;58451;51.550;7.208;2023-08-07T01:46:37;100339.00;;;12.50
70831;BMP180;58451;51.550;7.208;2023-08-07T01:48:09;100338.60;;;12.50
70831;BMP180;58451;51.550;7.208;2023-08-07T01:49:41;100338.00;;;12.50
70831;BMP180;58451;51.550;7.208;2023-08-07T01:51:14;100341.00;;;12.50
70831;BMP180;58451;51.550;7.208;2023-08-07T01:52:46;100337.00;;;12.50
70831;BMP180;58451;51.550;7.208;2023-08-07T01:54:21;100335.80;;;12.48
70831;BMP180;58451;51.550;7.208;2023-08-07T01:55:53;100339.60;;;12.44
70831;BMP180;58451;51.550;7.208;2023-08-07T01:57:24;100345.20;;;12.40
70831;BMP180;58451;51.550;7.208;2023-08-07T01:58:57;100343.40;;;12.40
70831;BMP180;58451;51.550;7.208;2023-08-07T02:00:28;100343.60;;;12.40
70831;BMP180;58451;51.550;7.208;2023-08-07T02:02:00;100344.40;;;12.40
70831;BMP180;58451;51.550;7.208;2023-08-07T02:03:32;100342.80;;;12.40
70831;BMP180;58451;51.550;7.208;2023-08-07T02:05:05;100344.60;;;12.40
70831;BMP180;58451;51.550;7.208;2023-08-07T02:06:37;100353.40;;;12.40
70831;BMP180;58451;51.550;7.208;2023-08-07T02:08:08;100347.20;;;12.40
70831;BMP180;58451;51.550;7.208;2023-08-07T02:09:40;100350.00;;;12.40
70831;BMP180;58451;51.550;7.208;2023-08-07T02:11:12;100345.00;;;12.38
70831;BMP180;58451;51.550;7.208;2023-08-07T02:12:44;100351.00;;;12.32
70831;BMP180;58451;51.550;7.208;2023-08-07T02:14:16;100345.20;;;12.30
70831;BMP180;58451;51.550;7.208;2023-08-07T02:15:48;100350.80;;;12.30
70831;BMP180;58451;51.550;7.208;2023-08-07T02:17:21;100353.40;;;12.30
70831;BMP180;58451;51.550;7.208;2023-08-07T02:18:54;100351.60;;;12.30
70831;BMP180;58451;51.550;7.208;2023-08-07T02:20:26;100354.40;;;12.30
70831;BMP180;58451;51.550;7.208;2023-08-07T02:21:58;100355.00;;;12.30
70831;BMP180;58451;51.550;7.208;2023-08-07T02:23:30;100354.40;;;12.30
70831;BMP180;58451;51.550;7.208;2023-08-07T02:25:02;100351.60;;;12.30
70831;BMP180;58451;51.550;7.208;2023-08-07T02:26:33;100351.60;;;12.30
70831;BMP180;58451;51.550;7.208;2023-08-07T02:28:05;100354.20;;;12.30
70831;BMP180;58451;51.550;7.208;2023-08-07T02:29:37;100357.40;;;12.32
70831;BMP180;58451;51.550;7.208;2023-08-07T02:31:09;100360.80;;;12.38
70831;BMP180;58451;51.550;7.208;2023-08-07T02:32:41;100358.20;;;12.40
70831;BMP180;58451;51.550;7.208;2023-08-07T02:34:15;100359.60;;;12.40
70831;BMP180;58451;51.550;7.208;2023-08-07T02:35:47;100361.00;;;12.40
70831;BMP180;58451;51.550;7.208;2023-08-07T02:37:19;100359.00;;;12.40
70831;BMP180;58451;51.550;7.208;2023-08-07T02:38:52;100354.00;;;12.40
70831;BMP180;58451;51.550;7.208;2023-08-07T02:40:28;100365.40;;;12.40
70831;BMP180;58451;51.550;7.208;2023-08-07T02:41:59;100358.00;;;12.40
70831;BMP180;58451;51.550;7.208;2023-08-07T02:43:31;100361.40;;;12.40
70831;BMP180;58451;51.550;7.208;2023-08-07T02:45:05;100361.60;;;12.40
70831;BMP180;58451;51.550;7.208;2023-08-07T02:46:37;100358.40;;;12.42
70831;BMP180;58451;51.550;7.208;2023-08-07T02:48:09;100360.20;;;12.48
70831;BMP180;58451;51.550;7.208;2023-08-07T02:49:41;100357.00;;;12.50
70831;BMP180;58451;51.550;7.208;2023-08-07T02:51:13;100359.60;;;12.50
70831;BMP180;58451;51.550;7.208;2023-08-07T02:52:45;100362.40;;;12.50
70831;BMP180;58451;51.550;7.208;2023-08-07T02:54:17;100360.00;;;12.50
70831;BMP180;58451;51.550;7.208;2023-08-07T02:55:49;100356.00;;;12.50
70831;BMP180;58451;51.550;7.208;2023-08-07T02:57:21;100365.20;;;12.50
70831;BMP180;58451;51.550;7.208;2023-08-07T02:58:53;100354.00;;;12.50
70831;BMP180;58451;51.550;7.208;2023-08-07T03:00:25;100357.60;;;12.50
70831;BMP180;58451;51.550;7.208;2023-08-07T03:01:56;100364.60;;;12.52
70831;BMP180;58451;51.550;7.208;2023-08-07T03:03:28;100371.60;;;12.56
70831;BMP180;58451;51.550;7.208;2023-08-07T03:05:00;100365.40;;;12.58
70831;BMP180;58451;51.550;7.208;2023-08-07T03:06:32;100365.60;;;12.60
70831;BMP180;58451;51.550;7.208;2023-08-07T03:08:04;100368.80;;;12.60
70831;BMP180;58451;51.550;7.208;2023-08-07T03:09:35;100367.60;;;12.60
70831;BMP180;58451;51.550;7.208;2023-08-07T03:11:08;100363.00;;;12.60
70831;BMP180;58451;51.550;7.208;2023-08-07T03:12:40;100370.40;;;12.56
70831;BMP180;58451;51.550;7.208;2023-08-07T03:14:12;100369.00;;;12.54
70831;BMP180;58451;51.550;7.208;2023-08-07T03:15:44;100366.00;;;12.52
70831;BMP180;58451;51.550;7.208;2023-08-07T03:17:16;100362.40;;;12.52
70831;BMP180;58451;51.550;7.208;2023-08-07T03:18:48;100366.00;;;12.50
70831;BMP180;58451;51.550;7.208;2023-08-07T03:20:19;100366.40;;;12.50
70831;BMP180;58451;51.550;7.208;2023-08-07T03:21:51;100366.40;;;12.50
70831;BMP180;58451;51.550;7.208;2023-08-07T03:23:25;100364.60;;;12.50
70831;BMP180;58451;51.550;7.208;2023-08-07T03:24:58;100370.00;;;12.50
70831;BMP180;58451;51.550;7.208;2023-08-07T03:26:30;100374.40;;;12.50
70831;BMP180;58451;51.550;7.208;2023-08-07T03:28:01;100368.20;;;12.50
70831;BMP180;58451;51.550;7.208;2023-08-07T03:29:33;100369.20;;;12.50
70831;BMP180;58451;51.550;7.208;2023-08-07T03:31:06;100372.20;;;12.50
70831;BMP180;58451;51.550;7.208;2023-08-07T03:32:39;100370.80;;;12.46
70831;BMP180;58451;51.550;7.208;2023-08-07T03:34:11;100374.80;;;12.48
70831;BMP180;58451;51.550;7.208;2023-08-07T03:35:43;100366.80;;;12.44
70831;BMP180;58451;51.550;7.208;2023-08-07T03:37:15;100375.80;;;12.48
70831;BMP180;58451;51.550;7.208;2023-08-07T03:38:47;100378.00;;;12.44
70831;BMP180;58451;51.550;7.208;2023-08-07T03:40:18;100380.20;;;12.40
70831;BMP180;58451;51.550;7.208;2023-08-07T03:41:51;100377.80;;;12.42
70831;BMP180;58451;51.550;7.208;2023-08-07T03:43:23;100380.00;;;12.40
70831;BMP180;58451;51.550;7.208;2023-08-07T03:44:55;100384.20;;;12.44
70831;BMP180;58451;51.550;7.208;2023-08-07T03:46:27;100381.40;;;12.40
70831;BMP180;58451;51.550;7.208;2023-08-07T03:47:58;100385.40;;;12.42
70831;BMP180;58451;51.550;7.208;2023-08-07T03:49:30;100385.40;;;12.40
70831;BMP180;58451;51.550;7.208;2023-08-07T03:51:07;100384.60;;;12.40
70831;BMP180;58451;51.550;7.208;2023-08-07T03:52:49;100389.80;;;12.40
70831;BMP180;58451;51.550;7.208;2023-08-07T03:54:22;100385.80;;;12.40
70831;BMP180;58451;51.550;7.208;2023-08-07T03:55:54;100383.20;;;12.40
70831;BMP180;58451;51.550;7.208;2023-08-07T03:57:26;100384.00;;;12.40
70831;BMP180;58451;51.550;7.208;2023-08-07T03:58:58;100383.40;;;12.40
70831;BMP180;58451;51.550;7.208;2023-08-07T04:00:30;100389.20;;;12.40
70831;BMP180;58451;51.550;7.208;2023-08-07T04:02:02;100379.60;;;12.38
70831;BMP180;58451;51.550;7.208;2023-08-07T04:03:34;100383.80;;;12.38
70831;BMP180;58451;51.550;7.208;2023-08-07T04:05:07;100380.00;;;12.30
70831;BMP180;58451;51.550;7.208;2023-08-07T04:06:39;100373.20;;;12.34
70831;BMP180;58451;51.550;7.208;2023-08-07T04:08:11;100384.80;;;12.30
70831;BMP180;58451;51.550;7.208;2023-08-07T04:09:43;100382.00;;;12.30
70831;BMP180;58451;51.550;7.208;2023-08-07T04:11:16;100382.00;;;12.30
70831;BMP180;58451;51.550;7.208;2023-08-07T04:12:49;100381.20;;;12.30
70831;BMP180;58451;51.550;7.208;2023-08-07T04:14:21;100384.80;;;12.30
70831;BMP180;58451;51.550;7.208;2023-08-07T04:15:53;100378.80;;;12.30
70831;BMP180;58451;51.550;7.208;2023-08-07T04:17:25;100381.40;;;12.30
70831;BMP180;58451;51.550;7.208;2023-08-07T04:18:58;100383.80;;;12.30
70831;BMP180;58451;51.550;7.208;2023-08-07T04:20:31;100383.20;;;12.30
70831;BMP180;58451;51.550;7.208;2023-08-07T04:22:03;100385.00;;;12.30
70831;BMP180;58451;51.550;7.208;2023-08-07T04:23:36;100386.60;;;12.30
70831;BMP180;58451;51.550;7.208;2023-08-07T04:25:08;100388.40;;;12.30
70831;BMP180;58451;51.550;7.208;2023-08-07T04:26:40;100391.60;;;12.30
70831;BMP180;58451;51.550;7.208;2023-08-07T04:28:13;100384.00;;;12.30
70831;BMP180;58451;51.550;7.208;2023-08-07T04:29:45;100390.40;;;12.30
70831;BMP180;58451;51.550;7.208;2023-08-07T04:31:17;100398.00;;;12.30
70831;BMP180;58451;51.550;7.208;2023-08-07T04:32:49;100400.80;;;12.30
70831;BMP180;58451;51.550;7.208;2023-08-07T04:34:21;100387.60;;;12.30
70831;BMP180;58451;51.550;7.208;2023-08-07T04:35:53;100390.60;;;12.30
70831;BMP180;58451;51.550;7.208;2023-08-07T04:37:25;100388.00;;;12.30
70831;BMP180;58451;51.550;7.208;2023-08-07T04:38:56;100390.40;;;12.26
70831;BMP180;58451;51.550;7.208;2023-08-07T04:40:29;100390.40;;;12.20
70831;BMP180;58451;51.550;7.208;2023-08-07T04:42:01;100384.60;;;12.24
70831;BMP180;58451;51.550;7.208;2023-08-07T04:43:33;100391.40;;;12.22
70831;BMP180;58451;51.550;7.208;2023-08-07T04:45:05;100399.60;;;12.22
70831;BMP180;58451;51.550;7.208;2023-08-07T04:46:37;100394.40;;;12.28
70831;BMP180;58451;51.550;7.208;2023-08-07T04:48:09;100398.00;;;12.22
70831;BMP180;58451;51.550;7.208;2023-08-07T04:49:41;100396.40;;;12.30
70831;BMP180;58451;51.550;7.208;2023-08-07T04:51:13;100402.00;;;12.30
70831;BMP180;58451;51.550;7.208;2023-08-07T04:52:45;100394.20;;;12.30
70831;BMP180;58451;51.550;7.208;2023-08-07T04:54:17;100396.20;;;12.30
70831;BMP180;58451;51.550;7.208;2023-08-07T04:55:48;100391.80;;;12.30
70831;BMP180;58451;51.550;7.208;2023-08-07T04:57:20;100394.20;;;12.30
70831;BMP180;58451;51.550;7.208;2023-08-07T04:58:52;100390.80;;;12.30
70831;BMP180;58451;51.550;7.208;2023-08-07T05:00:24;100395.00;;;12.30
70831;BMP180;58451;51.550;7.208;2023-08-07T05:01:56;100395.80;;;12.30
70831;BMP180;58451;51.550;7.208;2023-08-07T05:03:29;100393.60;;;12.30
70831;BMP180;58451;51.550;7.208;2023-08-07T05:05:02;100396.40;;;12.30
70831;BMP180;58451;51.550;7.208;2023-08-07T05:06:34;100390.00;;;12.30
70831;BMP180;58451;51.550;7.208;2023-08-07T05:08:06;100399.40;;;12.30
70831;BMP180;58451;51.550;7.208;2023-08-07T05:09:38;100393.80;;;12.28
70831;BMP180;58451;51.550;7.208;2023-08-07T05:11:10;100392.40;;;12.30
70831;BMP180;58451;51.550;7.208;2023-08-07T05:12:41;100393.80;;;12.28
70831;BMP180;58451;51.550;7.208;2023-08-07T05:14:13;100394.60;;;12.30
70831;BMP180;58451;51.550;7.208;2023-08-07T05:15:48;100394.00;;;12.30
70831;BMP180;58451;51.550;7.208;2023-08-07T05:17:20;100387.20;;;12.30
70831;BMP180;58451;51.550;7.208;2023-08-07T05:18:53;100397.60;;;12.30
70831;BMP180;58451;51.550;7.208;2023-08-07T05:20:25;100393.80;;;12.26
70831;BMP180;58451;51.550;7.208;2023-08-07T05:21:56;100391.40;;;12.26
70831;BMP180;58451;51.550;7.208;2023-08-07T05:23:28;100395.40;;;12.28
70831;BMP180;58451;51.550;7.208;2023-08-07T05:25:00;100398.40;;;12.22
70831;BMP180;58451;51.550;7.208;2023-08-07T05:26:32;100393.20;;;12.28
70831;BMP180;58451;51.550;7.208;2023-08-07T05:28:04;100404.80;;;12.30
70831;BMP180;58451;51.550;7.208;2023-08-07T05:29:37;100397.80;;;12.24
70831;BMP180;58451;51.550;7.208;2023-08-07T05:31:15;100404.20;;;12.24
70831;BMP180;58451;51.550;7.208;2023-08-07T05:32:47;100405.40;;;12.20
70831;BMP180;58451;51.550;7.208;2023-08-07T05:34:19;100407.00;;;12.20
70831;BMP180;58451;51.550;7.208;2023-08-07T05:35:50;100405.00;;;12.20
70831;BMP180;58451;51.550;7.208;2023-08-07T05:37:24;100407.00;;;12.20
70831;BMP180;58451;51.550;7.208;2023-08-07T05:38:56;100410.40;;;12.20
70831;BMP180;58451;51.550;7.208;2023-08-07T05:40:27;100412.00;;;12.20
70831;BMP180;58451;51.550;7.208;2023-08-07T05:42:01;100409.00;;;12.20
70831;BMP180;58451;51.550;7.208;2023-08-07T05:43:33;100407.60;;;12.20
70831;BMP180;58451;51.550;7.208;2023-08-07T05:45:05;100408.40;;;12.20
70831;BMP180;58451;51.550;7.208;2023-08-07T05:46:37;100410.80;;;12.20
70831;BMP180;58451;51.550;7.208;2023-08-07T05:48:09;100416.80;;;12.20
70831;BMP180;58451;51.550;7.208;2023-08-07T05:49:41;100411.20;;;12.24
70831;BMP180;58451;51.550;7.208;2023-08-07T05:51:13;100411.80;;;12.30
70831;BMP180;58451;51.550;7.208;2023-08-07T05:52:45;100408.80;;;12.30
70831;BMP180;58451;51.550;7.208;2023-08-07T05:54:17;100413.20;;;12.30
70831;BMP180;58451;51.550;7.208;2023-08-07T05:55:49;100418.40;;;12.30
70831;BMP180;58451;51.550;7.208;2023-08-07T05:57:21;100413.80;;;12.30
70831;BMP180;58451;51.550;7.208;2023-08-07T05:58:53;100420.80;;;12.30
70831;BMP180;58451;51.550;7.208;2023-08-07T06:00:25;100418.40;;;12.30
70831;BMP180;58451;51.550;7.208;2023-08-07T06:01:57;100419.40;;;12.30
70831;BMP180;58451;51.550;7.208;2023-08-07T06:03:31;100427.00;;;12.30
70831;BMP180;58451;51.550;7.208;2023-08-07T06:05:04;100426.40;;;12.30
70831;BMP180;58451;51.550;7.208;2023-08-07T06:06:36;100428.20;;;12.32
70831;BMP180;58451;51.550;7.208;2023-08-07T06:08:10;100428.80;;;12.40
70831;BMP180;58451;51.550;7.208;2023-08-07T06:09:42;100428.00;;;12.40
70831;BMP180;58451;51.550;7.208;2023-08-07T06:11:14;100436.60;;;12.40
70831;BMP180;58451;51.550;7.208;2023-08-07T06:12:46;100433.20;;;12.40
70831;BMP180;58451;51.550;7.208;2023-08-07T06:14:17;100437.60;;;12.40
70831;BMP180;58451;51.550;7.208;2023-08-07T06:15:49;100440.00;;;12.40
70831;BMP180;58451;51.550;7.208;2023-08-07T06:17:21;100447.20;;;12.40
70831;BMP180;58451;51.550;7.208;2023-08-07T06:18:53;100445.00;;;12.40
70831;BMP180;58451;51.550;7.208;2023-08-07T06:20:25;100437.40;;;12.42
70831;BMP180;58451;51.550;7.208;2023-08-07T06:21:57;100434.20;;;12.46
70831;BMP180;58451;51.550;7.208;2023-08-07T06:23:30;100440.40;;;12.50
70831;BMP180;58451;51.550;7.208;2023-08-07T06:25:02;100442.60;;;12.50
70831;BMP180;58451;51.550;7.208;2023-08-07T06:26:34;100443.20;;;12.52
70831;BMP180;58451;51.550;7.208;2023-08-07T06:28:06;100446.60;;;12.60
70831;BMP180;58451;51.550;7.208;2023-08-07T06:29:37;100451.40;;;12.60
70831;BMP180;58451;51.550;7.208;2023-08-07T06:31:11;100450.20;;;12.60
70831;BMP180;58451;51.550;7.208;2023-08-07T06:32:43;100450.60;;;12.68
70831;BMP180;58451;51.550;7.208;2023-08-07T06:34:15;100450.00;;;12.70
70831;BMP180;58451;51.550;7.208;2023-08-07T06:35:47;100448.20;;;12.70
70831;BMP180;58451;51.550;7.208;2023-08-07T06:37:19;100452.00;;;12.70
70831;BMP180;58451;51.550;7.208;2023-08-07T06:38:51;100456.40;;;12.70
70831;BMP180;58451;51.550;7.208;2023-08-07T06:40:23;100459.40;;;12.72
70831;BMP180;58451;51.550;7.208;2023-08-07T06:41:55;100458.20;;;12.80
70831;BMP180;58451;51.550;7.208;2023-08-07T06:43:27;100461.40;;;12.80
70831;BMP180;58451;51.550;7.208;2023-08-07T06:44:59;100462.60;;;12.80
70831;BMP180;58451;51.550;7.208;2023-08-07T06:46:31;100469.60;;;12.86
70831;BMP180;58451;51.550;7.208;2023-08-07T06:48:03;100465.60;;;12.90
70831;BMP180;58451;51.550;7.208;2023-08-07T06:49:35;100471.20;;;12.90
70831;BMP180;58451;51.550;7.208;2023-08-07T06:51:07;100467.40;;;12.96
70831;BMP180;58451;51.550;7.208;2023-08-07T06:52:38;100473.40;;;12.98
70831;BMP180;58451;51.550;7.208;2023-08-07T06:54:10;100472.40;;;13.00
70831;BMP180;58451;51.550;7.208;2023-08-07T06:55:43;100474.60;;;13.00
70831;BMP180;58451;51.550;7.208;2023-08-07T06:57:15;100474.40;;;13.00
70831;BMP180;58451;51.550;7.208;2023-08-07T06:58:47;100476.80;;;13.00
70831;BMP180;58451;51.550;7.208;2023-08-07T07:00:19;100473.20;;;13.00
70831;BMP180;58451;51.550;7.208;2023-08-07T07:01:51;100480.80;;;13.00
70831;BMP180;58451;51.550;7.208;2023-08-07T07:03:23;100482.20;;;13.00
70831;BMP180;58451;51.550;7.208;2023-08-07T07:04:55;100479.60;;;13.00
70831;BMP180;58451;51.550;7.208;2023-08-07T07:06:28;100483.80;;;13.00
70831;BMP180;58451;51.550;7.208;2023-08-07T07:07:59;100476.40;;;13.00
70831;BMP180;58451;51.550;7.208;2023-08-07T07:09:31;100484.80;;;13.00
70831;BMP180;58451;51.550;7.208;2023-08-07T07:11:03;100480.60;;;13.00
70831;BMP180;58451;51.550;7.208;2023-08-07T07:12:36;100481.00;;;13.10
70831;BMP180;58451;51.550;7.208;2023-08-07T07:14:08;100488.00;;;13.20
70831;BMP180;58451;51.550;7.208;2023-08-07T07:15:40;100484.60;;;13.20
70831;BMP180;58451;51.550;7.208;2023-08-07T07:17:12;100489.80;;;13.16
70831;BMP180;58451;51.550;7.208;2023-08-07T07:18:44;100492.60;;;13.10
70831;BMP180;58451;51.550;7.208;2023-08-07T07:20:16;100492.00;;;13.10
70831;BMP180;58451;51.550;7.208;2023-08-07T07:21:50;100502.80;;;13.10
70831;BMP180;58451;51.550;7.208;2023-08-07T07:23:22;100502.20;;;13.02
70831;BMP180;58451;51.550;7.208;2023-08-07T07:24:54;100504.80;;;13.00
70831;BMP180;58451;51.550;7.208;2023-08-07T07:26:26;100503.60;;;13.00
70831;BMP180;58451;51.550;7.208;2023-08-07T07:27:58;100510.20;;;13.00
70831;BMP180;58451;51.550;7.208;2023-08-07T07:29:30;100512.80;;;13.00
70831;BMP180;58451;51.550;7.208;2023-08-07T07:31:01;100513.20;;;13.00
70831;BMP180;58451;51.550;7.208;2023-08-07T07:32:35;100524.40;;;13.00
70831;BMP180;58451;51.550;7.208;2023-08-07T07:34:07;100515.00;;;13.00
70831;BMP180;58451;51.550;7.208;2023-08-07T07:35:39;100521.40;;;12.98
70831;BMP180;58451;51.550;7.208;2023-08-07T07:37:11;100522.20;;;12.90
70831;BMP180;58451;51.550;7.208;2023-08-07T07:38:46;100528.80;;;12.90
70831;BMP180;58451;51.550;7.208;2023-08-07T07:40:18;100524.80;;;12.90
70831;BMP180;58451;51.550;7.208;2023-08-07T07:41:50;100528.00;;;12.90
70831;BMP180;58451;51.550;7.208;2023-08-07T07:43:22;100531.20;;;12.90
70831;BMP180;58451;51.550;7.208;2023-08-07T07:44:55;100532.60;;;12.90
70831;BMP180;58451;51.550;7.208;2023-08-07T07:46:27;100536.40;;;12.90
70831;BMP180;58451;51.550;7.208;2023-08-07T07:47:59;100537.20;;;12.90
70831;BMP180;58451;51.550;7.208;2023-08-07T07:49:32;100534.80;;;12.90
70831;BMP180;58451;51.550;7.208;2023-08-07T07:51:04;100538.80;;;12.98
70831;BMP180;58451;51.550;7.208;2023-08-07T07:52:37;100537.40;;;13.00
70831;BMP180;58451;51.550;7.208;2023-08-07T07:54:08;100546.40;;;13.00
70831;BMP180;58451;51.550;7.208;2023-08-07T07:55:49;100544.00;;;13.00
70831;BMP180;58451;51.550;7.208;2023-08-07T07:57:20;100549.60;;;13.00
70831;BMP180;58451;51.550;7.208;2023-08-07T07:58:53;100556.20;;;13.00
70831;BMP180;58451;51.550;7.208;2023-08-07T08:00:25;100552.00;;;13.10
70831;BMP180;58451;51.550;7.208;2023-08-07T08:01:58;100558.40;;;13.10
70831;BMP180;58451;51.550;7.208;2023-08-07T08:03:30;100562.60;;;13.20
70831;BMP180;58451;51.550;7.208;2023-08-07T08:05:02;100559.00;;;13.20
70831;BMP180;58451;51.550;7.208;2023-08-07T08:06:34;100559.20;;;13.30
70831;BMP180;58451;51.550;7.208;2023-08-07T08:08:06;100568.40;;;13.30
70831;BMP180;58451;51.550;7.208;2023-08-07T08:09:39;100560.60;;;13.40
70831;BMP180;58451;51.550;7.208;2023-08-07T08:11:11;100566.00;;;13.46
70831;BMP180;58451;51.550;7.208;2023-08-07T08:12:42;100575.40;;;13.50
70831;BMP180;58451;51.550;7.208;2023-08-07T08:14:14;100574.40;;;13.60
70831;BMP180;58451;51.550;7.208;2023-08-07T08:15:46;100568.80;;;13.60
70831;BMP180;58451;51.550;7.208;2023-08-07T08:17:18;100569.00;;;13.70
70831;BMP180;58451;51.550;7.208;2023-08-07T08:18:50;100583.20;;;13.70
70831;BMP180;58451;51.550;7.208;2023-08-07T08:20:22;100577.60;;;13.70
70831;BMP180;58451;51.550;7.208;2023-08-07T08:21:54;100586.60;;;13.70
70831;BMP180;58451;51.550;7.208;2023-08-07T08:23:26;100585.00;;;13.70
70831;BMP180;58451;51.550;7.208;2023-08-07T08:24:58;100589.60;;;13.62
70831;BMP180;58451;51.550;7.208;2023-08-07T08:26:30;100591.80;;;13.70
70831;BMP180;58451;51.550;7.208;2023-08-07T08:28:02;100589.80;;;13.70
70831;BMP180;58451;51.550;7.208;2023-08-07T08:29:33;100593.00;;;13.80
70831;BMP180;58451;51.550;7.208;2023-08-07T08:31:05;100597.80;;;13.90
70831;BMP180;58451;51.550;7.208;2023-08-07T08:32:38;100600.80;;;14.00
70831;BMP180;58451;51.550;7.208;2023-08-07T08:34:11;100607.00;;;14.04
70831;BMP180;58451;51.550;7.208;2023-08-07T08:35:43;100616.20;;;14.10
70831;BMP180;58451;51.550;7.208;2023-08-07T08:37:15;100610.80;;;14.00
70831;BMP180;58451;51.550;7.208;2023-08-07T08:38:47;100614.40;;;14.02
70831;BMP180;58451;51.550;7.208;2023-08-07T08:40:20;100616.80;;;14.04
70831;BMP180;58451;51.550;7.208;2023-08-07T08:41:53;100616.40;;;14.00
70831;BMP180;58451;51.550;7.208;2023-08-07T08:43:25;100614.80;;;14.00
70831;BMP180;58451;51.550;7.208;2023-08-07T08:44:59;100615.60;;;14.00
70831;BMP180;58451;51.550;7.208;2023-08-07T08:46:34;100624.80;;;14.00
70831;BMP180;58451;51.550;7.208;2023-08-07T08:48:09;100632.40;;;14.00